sensor_id;sensor_type;location;lat;lon;timestamp;pressure;altitude;pressure_sealevel;temperature;humidity
79413;BME280;68863;49.528;11.010;2023-06-24T00:00:19;99178.94;;;17.29;69.21
79413;BME280;68863;49.528;11.010;2023-06-24T00:01:19;99170.84;;;17.30;68.76
79413;BME280;68863;49.528;11.010;2023-06-24T00:02:20;99177.56;;;17.34;68.58
79413;BME280;68863;49.528;11.010;2023-06-24T00:03:24;99173.75;;;17.27;68.52
79413;BME280;68863;49.528;11.010;2023-06-24T00:04:24;99174.84;;;17.25;68.45
79413;BME280;68863;49.528;11.010;2023-06-24T00:05:24;99177.88;;;17.20;68.73
79413;BME280;68863;49.528;11.010;2023-06-24T00:06:24;99166.75;;;17.26;68.48
79413;BME280;68863;49.528;11.010;2023-06-24T00:07:26;99168.22;;;17.19;68.94
79413;BME280;68863;49.528;11.010;2023-06-24T00:08:26;99168.38;;;17.18;69.11
79413;BME280;68863;49.528;11.010;2023-06-24T00:09:34;99169.59;;;17.13;69.18
79413;BME280;68863;49.528;11.010;2023-06-24T00:10:34;99176.34;;;17.18;68.88
79413;BME280;68863;49.528;11.010;2023-06-24T00:11:34;99171.03;;;17.18;69.18
79413;BME280;68863;49.528;11.010;2023-06-24T00:12:34;99167.25;;;17.20;69.35
79413;BME280;68863;49.528;11.010;2023-06-24T00:13:35;99170.03;;;17.19;69.54
79413;BME280;68863;49.528;11.010;2023-06-24T00:14:36;99173.47;;;17.09;69.81
79413;BME280;68863;49.528;11.010;2023-06-24T00:15:37;99162.22;;;17.17;69.66
79413;BME280;68863;49.528;11.010;2023-06-24T00:16:37;99162.69;;;17.22;69.49
79413;BME280;68863;49.528;11.010;2023-06-24T00:17:37;99168.72;;;17.24;69.14
79413;BME280;68863;49.528;11.010;2023-06-24T00:18:38;99172.06;;;17.26;69.43
79413;BME280;68863;49.528;11.010;2023-06-24T00:19:44;99169.41;;;17.26;69.13
79413;BME280;68863;49.528;11.010;2023-06-24T00:20:44;99170.50;;;17.24;69.14
79413;BME280;68863;49.528;11.010;2023-06-24T00:21:45;99159.44;;;17.19;68.95
79413;BME280;68863;49.528;11.010;2023-06-24T00:22:46;99171.66;;;17.10;69.47
79413;BME280;68863;49.528;11.010;2023-06-24T00:23:49;99165.91;;;17.05;69.93
79413;BME280;68863;49.528;11.010;2023-06-24T00:24:50;99169.41;;;17.05;69.95
79413;BME280;68863;49.528;11.010;2023-06-24T00:25:52;99165.53;;;17.09;69.68
79413;BME280;68863;49.528;11.010;2023-06-24T00:26:53;99167.34;;;17.09;69.45
79413;BME280;68863;49.528;11.010;2023-06-24T00:27:53;99169.13;;;17.08;69.51
79413;BME280;68863;49.528;11.010;2023-06-24T00:28:53;99168.28;;;17.08;69.61
79413;BME280;68863;49.528;11.010;2023-06-24T00:29:54;99174.94;;;17.02;69.72
79413;BME280;68863;49.528;11.010;2023-06-24T00:30:54;99164.59;;;16.99;70.13
79413;BME280;68863;49.528;11.010;2023-06-24T00:31:54;99165.19;;;17.03;69.57
79413;BME280;68863;49.528;11.010;2023-06-24T00:32:55;99162.38;;;17.04;69.58
79413;BME280;68863;49.528;11.010;2023-06-24T00:33:56;99163.75;;;16.99;69.82
79413;BME280;68863;49.528;11.010;2023-06-24T00:34:56;99166.25;;;17.00;69.75
79413;BME280;68863;49.528;11.010;2023-06-24T00:36:00;99159.41;;;16.98;69.74
79413;BME280;68863;49.528;11.010;2023-06-24T00:37:00;99159.41;;;16.98;69.84
79413;BME280;68863;49.528;11.010;2023-06-24T00:38:03;99162.19;;;16.96;69.48
79413;BME280;68863;49.528;11.010;2023-06-24T00:39:04;99157.00;;;16.95;69.61
79413;BME280;68863;49.528;11.010;2023-06-24T00:40:05;99153.28;;;16.97;69.68
79413;BME280;68863;49.528;11.010;2023-06-24T00:41:07;99155.13;;;16.85;70.00
79413;BME280;68863;49.528;11.010;2023-06-24T00:42:07;99150.13;;;16.92;69.68
79413;BME280;68863;49.528;11.010;2023-06-24T00:43:07;99156.19;;;16.94;69.59
79413;BME280;68863;49.528;11.010;2023-06-24T00:44:08;99154.16;;;16.86;69.84
79413;BME280;68863;49.528;11.010;2023-06-24T00:45:09;99150.53;;;16.87;69.81
79413;BME280;68863;49.528;11.010;2023-06-24T00:46:10;99156.41;;;16.91;69.98
79413;BME280;68863;49.528;11.010;2023-06-24T00:47:11;99147.19;;;16.85;69.52
79413;BME280;68863;49.528;11.010;2023-06-24T00:48:11;99150.78;;;16.84;69.69
79413;BME280;68863;49.528;11.010;2023-06-24T00:49:11;99148.16;;;16.73;69.86
79413;BME280;68863;49.528;11.010;2023-06-24T00:50:17;99143.09;;;16.81;69.62
79413;BME280;68863;49.528;11.010;2023-06-24T00:51:17;99140.94;;;16.75;69.72
79413;BME280;68863;49.528;11.010;2023-06-24T00:52:19;99137.19;;;16.78;69.74
79413;BME280;68863;49.528;11.010;2023-06-24T00:53:19;99135.13;;;16.81;69.64
79413;BME280;68863;49.528;11.010;2023-06-24T00:54:21;99133.94;;;16.74;69.40
79413;BME280;68863;49.528;11.010;2023-06-24T00:55:21;99130.69;;;16.71;69.87
79413;BME280;68863;49.528;11.010;2023-06-24T00:56:34;99127.28;;;16.69;69.71
79413;BME280;68863;49.528;11.010;2023-06-24T00:57:34;99131.50;;;16.71;69.74
79413;BME280;68863;49.528;11.010;2023-06-24T00:58:37;99136.59;;;16.74;69.63
79413;BME280;68863;49.528;11.010;2023-06-24T00:59:40;99129.63;;;16.62;69.78
79413;BME280;68863;49.528;11.010;2023-06-24T01:00:45;99130.31;;;16.64;69.78
79413;BME280;68863;49.528;11.010;2023-06-24T01:01:46;99136.38;;;16.66;69.62
79413;BME280;68863;49.528;11.010;2023-06-24T01:02:47;99132.97;;;16.64;69.74
79413;BME280;68863;49.528;11.010;2023-06-24T01:03:48;99133.13;;;16.62;70.07
79413;BME280;68863;49.528;11.010;2023-06-24T01:04:48;99132.84;;;16.65;69.38
79413;BME280;68863;49.528;11.010;2023-06-24T01:05:48;99127.22;;;16.59;70.06
79413;BME280;68863;49.528;11.010;2023-06-24T01:06:49;99136.38;;;16.66;69.63
79413;BME280;68863;49.528;11.010;2023-06-24T01:07:50;99127.47;;;16.56;70.36
79413;BME280;68863;49.528;11.010;2023-06-24T01:08:58;99132.84;;;16.65;69.60
79413;BME280;68863;49.528;11.010;2023-06-24T01:10:00;99131.56;;;16.60;70.37
79413;BME280;68863;49.528;11.010;2023-06-24T01:11:00;99136.25;;;16.56;70.64
79413;BME280;68863;49.528;11.010;2023-06-24T01:12:01;99129.03;;;16.58;70.36
79413;BME280;68863;49.528;11.010;2023-06-24T01:13:02;99139.88;;;16.55;70.17
79413;BME280;68863;49.528;11.010;2023-06-24T01:14:04;99139.50;;;16.60;69.52
79413;BME280;68863;49.528;11.010;2023-06-24T01:15:08;99140.66;;;16.46;69.71
79413;BME280;68863;49.528;11.010;2023-06-24T01:16:20;99133.53;;;16.47;70.07
79413;BME280;68863;49.528;11.010;2023-06-24T01:17:33;99136.78;;;16.39;70.33
79413;BME280;68863;49.528;11.010;2023-06-24T01:18:43;99133.31;;;16.38;70.24
79413;BME280;68863;49.528;11.010;2023-06-24T01:20:11;99134.53;;;16.34;70.27
79413;BME280;68863;49.528;11.010;2023-06-24T01:28:37;99123.88;;;16.46;70.22
79413;BME280;68863;49.528;11.010;2023-06-24T01:29:50;99126.78;;;16.42;70.27
79413;BME280;68863;49.528;11.010;2023-06-24T01:32:25;99114.69;;;16.50;69.85
79413;BME280;68863;49.528;11.010;2023-06-24T01:33:38;99115.38;;;16.31;70.50
79413;BME280;68863;49.528;11.010;2023-06-24T01:34:59;99123.66;;;16.26;70.68
79413;BME280;68863;49.528;11.010;2023-06-24T01:36:01;99123.53;;;16.39;69.63
79413;BME280;68863;49.528;11.010;2023-06-24T01:37:12;99119.09;;;16.39;69.62
79413;BME280;68863;49.528;11.010;2023-06-24T01:38:22;99122.34;;;16.43;69.68
79413;BME280;68863;49.528;11.010;2023-06-24T01:39:25;99125.72;;;16.34;69.99
79413;BME280;68863;49.528;11.010;2023-06-24T01:40:34;99125.25;;;16.29;69.60
79413;BME280;68863;49.528;11.010;2023-06-24T01:42:03;99123.78;;;16.36;69.45
79413;BME280;68863;49.528;11.010;2023-06-24T01:43:06;99124.88;;;16.33;69.94
79413;BME280;68863;49.528;11.010;2023-06-24T01:44:10;99123.94;;;16.23;70.47
79413;BME280;68863;49.528;11.010;2023-06-24T01:45:16;99115.84;;;16.25;70.34
79413;BME280;68863;49.528;11.010;2023-06-24T01:46:25;99113.81;;;16.28;70.04
79413;BME280;68863;49.528;11.010;2023-06-24T01:47:26;99116.72;;;16.03;71.21
79413;BME280;68863;49.528;11.010;2023-06-24T01:48:28;99112.75;;;16.08;70.99
79413;BME280;68863;49.528;11.010;2023-06-24T01:49:30;99113.47;;;16.10;71.07
79413;BME280;68863;49.528;11.010;2023-06-24T01:50:35;99111.19;;;16.17;70.63
79413;BME280;68863;49.528;11.010;2023-06-24T01:51:38;99111.78;;;16.21;70.38
79413;BME280;68863;49.528;11.010;2023-06-24T01:52:43;99115.25;;;16.21;70.37
79413;BME280;68863;49.528;11.010;2023-06-24T01:53:51;99119.47;;;16.24;70.20
79413;BME280;68863;49.528;11.010;2023-06-24T01:54:52;99116.00;;;16.23;70.23
79413;BME280;68863;49.528;11.010;2023-06-24T01:55:57;99107.06;;;16.24;70.12
79413;BME280;68863;49.528;11.010;2023-06-24T01:56:59;99110.34;;;16.16;70.61
79413;BME280;68863;49.528;11.010;2023-06-24T01:58:02;99106.13;;;16.14;70.84
79413;BME280;68863;49.528;11.010;2023-06-24T01:59:03;99107.94;;;16.13;70.78
79413;BME280;68863;49.528;11.010;2023-06-24T02:00:05;99109.00;;;16.11;70.81
79413;BME280;68863;49.528;11.010;2023-06-24T02:01:08;99103.47;;;16.14;70.95
79413;BME280;68863;49.528;11.010;2023-06-24T02:02:08;99098.53;;;16.21;70.60
79413;BME280;68863;49.528;11.010;2023-06-24T02:03:09;99102.84;;;16.22;70.50
79413;BME280;68863;49.528;11.010;2023-06-24T02:04:10;99092.25;;;16.22;70.55
79413;BME280;68863;49.528;11.010;2023-06-24T02:05:11;99095.13;;;16.18;70.48
79413;BME280;68863;49.528;11.010;2023-06-24T02:06:13;99101.03;;;16.22;70.25
79413;BME280;68863;49.528;11.010;2023-06-24T02:07:14;99099.97;;;16.25;69.98
79413;BME280;68863;49.528;11.010;2023-06-24T02:08:16;99101.06;;;16.11;70.41
79413;BME280;68863;49.528;11.010;2023-06-24T02:09:17;99105.16;;;16.15;70.77
79413;BME280;68863;49.528;11.010;2023-06-24T02:10:20;99099.88;;;16.15;70.28
79413;BME280;68863;49.528;11.010;2023-06-24T02:11:22;99100.59;;;16.06;70.66
79413;BME280;68863;49.528;11.010;2023-06-24T02:12:24;99095.56;;;15.91;71.14
79413;BME280;68863;49.528;11.010;2023-06-24T02:13:27;99094.69;;;16.02;70.74
79413;BME280;68863;49.528;11.010;2023-06-24T02:14:32;99102.53;;;16.04;70.63
79413;BME280;68863;49.528;11.010;2023-06-24T02:15:34;99096.63;;;16.00;70.83
79413;BME280;68863;49.528;11.010;2023-06-24T02:16:35;99095.06;;;16.09;70.54
79413;BME280;68863;49.528;11.010;2023-06-24T02:17:37;99098.31;;;16.12;70.61
79413;BME280;68863;49.528;11.010;2023-06-24T02:18:40;99094.56;;;16.15;70.16
79413;BME280;68863;49.528;11.010;2023-06-24T02:19:43;99094.44;;;16.16;69.96
79413;BME280;68863;49.528;11.010;2023-06-24T02:20:44;99096.94;;;16.18;69.97
79413;BME280;68863;49.528;11.010;2023-06-24T02:21:46;99097.22;;;16.15;70.03
79413;BME280;68863;49.528;11.010;2023-06-24T02:22:47;99095.41;;;16.15;69.54
79413;BME280;68863;49.528;11.010;2023-06-24T02:23:48;99094.91;;;16.10;70.07
79413;BME280;68863;49.528;11.010;2023-06-24T02:24:50;99093.97;;;16.11;70.20
79413;BME280;68863;49.528;11.010;2023-06-24T02:25:51;99091.09;;;16.03;70.48
79413;BME280;68863;49.528;11.010;2023-06-24T02:26:51;99095.53;;;16.03;70.97
79413;BME280;68863;49.528;11.010;2023-06-24T02:27:53;99097.25;;;16.04;70.67
79413;BME280;68863;49.528;11.010;2023-06-24T02:28:55;99096.13;;;16.06;70.71
79413;BME280;68863;49.528;11.010;2023-06-24T02:29:57;99095.75;;;16.11;70.29
79413;BME280;68863;49.528;11.010;2023-06-24T02:30:58;99094.09;;;16.10;70.67
79413;BME280;68863;49.528;11.010;2023-06-24T02:31:59;99093.00;;;16.12;70.41
79413;BME280;68863;49.528;11.010;2023-06-24T02:32:59;99098.78;;;15.95;70.98
79413;BME280;68863;49.528;11.010;2023-06-24T02:34:00;99102.53;;;16.04;70.86
79413;BME280;68863;49.528;11.010;2023-06-24T02:35:00;99100.84;;;16.03;70.86
79413;BME280;68863;49.528;11.010;2023-06-24T02:36:00;99094.69;;;16.02;70.93
79413;BME280;68863;49.528;11.010;2023-06-24T02:37:00;99099.63;;;16.07;70.69
79413;BME280;68863;49.528;11.010;2023-06-24T02:38:01;99102.16;;;16.08;70.59
79413;BME280;68863;49.528;11.010;2023-06-24T02:39:02;99096.03;;;16.08;70.67
79413;BME280;68863;49.528;11.010;2023-06-24T02:40:05;99096.13;;;16.06;71.00
79413;BME280;68863;49.528;11.010;2023-06-24T02:41:06;99096.72;;;16.10;70.93
79413;BME280;68863;49.528;11.010;2023-06-24T02:42:06;99103.47;;;16.14;70.67
79413;BME280;68863;49.528;11.010;2023-06-24T02:43:06;99099.88;;;16.15;70.02
79413;BME280;68863;49.528;11.010;2023-06-24T02:44:06;99100.72;;;16.15;70.12
79413;BME280;68863;49.528;11.010;2023-06-24T02:45:07;99101.06;;;16.11;70.20
79413;BME280;68863;49.528;11.010;2023-06-24T02:46:09;99102.03;;;16.10;69.96
79413;BME280;68863;49.528;11.010;2023-06-24T02:47:12;99096.97;;;16.07;70.37
79413;BME280;68863;49.528;11.010;2023-06-24T02:48:16;99106.63;;;15.97;70.93
79413;BME280;68863;49.528;11.010;2023-06-24T02:49:17;99105.19;;;15.81;71.28
79413;BME280;68863;49.528;11.010;2023-06-24T02:50:19;99106.41;;;15.88;71.18
79413;BME280;68863;49.528;11.010;2023-06-24T02:51:21;99106.03;;;15.93;70.70
79413;BME280;68863;49.528;11.010;2023-06-24T02:52:21;99108.31;;;15.98;70.51
79413;BME280;68863;49.528;11.010;2023-06-24T02:53:22;99105.66;;;15.98;70.51
79413;BME280;68863;49.528;11.010;2023-06-24T02:54:22;99108.31;;;15.98;70.68
79413;BME280;68863;49.528;11.010;2023-06-24T02:55:23;99104.09;;;15.95;70.61
79413;BME280;68863;49.528;11.010;2023-06-24T02:56:26;99107.34;;;15.99;70.01
79413;BME280;68863;49.528;11.010;2023-06-24T02:57:28;99105.44;;;15.89;70.54
79413;BME280;68863;49.528;11.010;2023-06-24T02:58:28;99104.34;;;15.81;71.11
79413;BME280;68863;49.528;11.010;2023-06-24T02:59:31;99103.75;;;15.88;70.56
79413;BME280;68863;49.528;11.010;2023-06-24T03:00:31;99106.63;;;15.85;70.67
79413;BME280;68863;49.528;11.010;2023-06-24T03:01:35;99107.09;;;15.79;70.54
79413;BME280;68863;49.528;11.010;2023-06-24T03:02:39;99105.06;;;15.83;70.81
79413;BME280;68863;49.528;11.010;2023-06-24T03:03:41;99113.13;;;15.81;71.01
79413;BME280;68863;49.528;11.010;2023-06-24T03:04:41;99112.91;;;15.84;70.80
79413;BME280;68863;49.528;11.010;2023-06-24T03:05:42;99108.44;;;15.85;70.77
79413;BME280;68863;49.528;11.010;2023-06-24T03:06:45;99110.13;;;15.86;70.51
79413;BME280;68863;49.528;11.010;2023-06-24T03:07:46;99112.53;;;15.89;70.30
79413;BME280;68863;49.528;11.010;2023-06-24T03:08:47;99116.25;;;15.86;70.68
79413;BME280;68863;49.528;11.010;2023-06-24T03:09:48;99111.69;;;15.88;70.83
79413;BME280;68863;49.528;11.010;2023-06-24T03:10:48;99118.53;;;15.91;70.71
79413;BME280;68863;49.528;11.010;2023-06-24T03:11:49;99118.31;;;15.83;71.14
79413;BME280;68863;49.528;11.010;2023-06-24T03:12:49;99129.50;;;15.75;71.37
79413;BME280;68863;49.528;11.010;2023-06-24T03:13:49;99123.50;;;15.84;70.95
79413;BME280;68863;49.528;11.010;2023-06-24T03:14:49;99131.31;;;15.86;70.80
79413;BME280;68863;49.528;11.010;2023-06-24T03:15:50;99127.09;;;15.83;70.65
79413;BME280;68863;49.528;11.010;2023-06-24T03:16:50;99124.34;;;15.85;70.89
79413;BME280;68863;49.528;11.010;2023-06-24T03:17:51;99128.28;;;15.90;70.49
79413;BME280;68863;49.528;11.010;2023-06-24T03:18:52;99128.19;;;15.92;70.09
79413;BME280;68863;49.528;11.010;2023-06-24T03:19:52;99126.63;;;15.89;70.37
79413;BME280;68863;49.528;11.010;2023-06-24T03:20:52;99127.22;;;15.93;70.16
79413;BME280;68863;49.528;11.010;2023-06-24T03:21:52;99131.31;;;15.86;70.22
79413;BME280;68863;49.528;11.010;2023-06-24T03:22:53;99128.66;;;15.86;70.28
79413;BME280;68863;49.528;11.010;2023-06-24T03:23:54;99133.81;;;15.87;70.17
79413;BME280;68863;49.528;11.010;2023-06-24T03:24:55;99126.84;;;15.86;70.00
79413;BME280;68863;49.528;11.010;2023-06-24T03:25:56;99130.34;;;15.87;69.82
79413;BME280;68863;49.528;11.010;2023-06-24T03:26:56;99135.75;;;15.85;69.68
79413;BME280;68863;49.528;11.010;2023-06-24T03:27:56;99135.75;;;15.85;69.76
79413;BME280;68863;49.528;11.010;2023-06-24T03:28:57;99131.81;;;15.80;69.69
79413;BME280;68863;49.528;11.010;2023-06-24T03:29:57;99131.19;;;15.76;69.84
79413;BME280;68863;49.528;11.010;2023-06-24T03:30:58;99130.69;;;15.82;69.46
79413;BME280;68863;49.528;11.010;2023-06-24T03:31:58;99143.56;;;15.76;69.55
79413;BME280;68863;49.528;11.010;2023-06-24T03:32:59;99132.97;;;15.64;69.63
79413;BME280;68863;49.528;11.010;2023-06-24T03:33:59;99141.56;;;15.68;69.55
79413;BME280;68863;49.528;11.010;2023-06-24T03:34:59;99141.19;;;15.73;69.43
79413;BME280;68863;49.528;11.010;2023-06-24T03:36:00;99143.00;;;15.72;69.00
79413;BME280;68863;49.528;11.010;2023-06-24T03:37:00;99142.88;;;15.74;68.96
79413;BME280;68863;49.528;11.010;2023-06-24T03:38:00;99152.38;;;15.76;69.07
79413;BME280;68863;49.528;11.010;2023-06-24T03:39:01;99136.50;;;15.76;68.83
79413;BME280;68863;49.528;11.010;2023-06-24T03:40:01;99139.84;;;15.78;68.72
79413;BME280;68863;49.528;11.010;2023-06-24T03:41:01;99140.44;;;15.71;68.78
79413;BME280;68863;49.528;11.010;2023-06-24T03:42:02;99142.69;;;15.64;69.45
79413;BME280;68863;49.528;11.010;2023-06-24T03:43:02;99140.03;;;15.64;69.12
79413;BME280;68863;49.528;11.010;2023-06-24T03:44:03;99140.31;;;15.61;69.01
79413;BME280;68863;49.528;11.010;2023-06-24T03:45:04;99146.22;;;15.64;69.02
79413;BME280;68863;49.528;11.010;2023-06-24T03:46:04;99145.22;;;15.54;69.30
79413;BME280;68863;49.528;11.010;2023-06-24T03:47:04;99149.91;;;15.62;68.98
79413;BME280;68863;49.528;11.010;2023-06-24T03:48:05;99150.88;;;15.61;69.00
79413;BME280;68863;49.528;11.010;2023-06-24T03:49:05;99155.22;;;15.62;68.96
79413;BME280;68863;49.528;11.010;2023-06-24T03:50:06;99162.53;;;15.58;69.65
79413;BME280;68863;49.528;11.010;2023-06-24T03:51:07;99172.28;;;15.47;69.58
79413;BME280;68863;49.528;11.010;2023-06-24T03:52:07;99164.81;;;15.52;69.33
79413;BME280;68863;49.528;11.010;2023-06-24T03:53:09;99164.72;;;15.53;69.27
79413;BME280;68863;49.528;11.010;2023-06-24T03:54:09;99168.06;;;15.55;69.03
79413;BME280;68863;49.528;11.010;2023-06-24T03:55:10;99166.88;;;15.59;69.07
79413;BME280;68863;49.528;11.010;2023-06-24T03:56:11;99171.94;;;15.62;68.83
79413;BME280;68863;49.528;11.010;2023-06-24T03:57:12;99170.22;;;15.50;69.15
79413;BME280;68863;49.528;11.010;2023-06-24T03:58:12;99169.03;;;15.54;68.82
79413;BME280;68863;49.528;11.010;2023-06-24T03:59:13;99163.97;;;15.51;68.86
79413;BME280;68863;49.528;11.010;2023-06-24T04:00:15;99171.19;;;15.38;69.49
79413;BME280;68863;49.528;11.010;2023-06-24T04:01:20;99170.81;;;15.42;69.25
79413;BME280;68863;49.528;11.010;2023-06-24T04:02:21;99171.31;;;15.48;69.16
79413;BME280;68863;49.528;11.010;2023-06-24T04:03:23;99172.50;;;15.43;68.92
79413;BME280;68863;49.528;11.010;2023-06-24T04:04:26;99170.38;;;15.49;68.91
79413;BME280;68863;49.528;11.010;2023-06-24T04:05:26;99176.59;;;15.48;69.01
79413;BME280;68863;49.528;11.010;2023-06-24T04:06:27;99174.56;;;15.51;68.85
79413;BME280;68863;49.528;11.010;2023-06-24T04:07:27;99183.81;;;15.46;68.96
79413;BME280;68863;49.528;11.010;2023-06-24T04:08:27;99184.31;;;15.51;69.07
79413;BME280;68863;49.528;11.010;2023-06-24T04:09:34;99182.25;;;15.43;68.99
79413;BME280;68863;49.528;11.010;2023-06-24T04:10:35;99182.13;;;15.33;69.70
79413;BME280;68863;49.528;11.010;2023-06-24T04:11:35;99185.72;;;15.43;69.32
79413;BME280;68863;49.528;11.010;2023-06-24T04:12:38;99184.41;;;15.38;69.52
79413;BME280;68863;49.528;11.010;2023-06-24T04:13:38;99188.16;;;15.47;69.08
79413;BME280;68863;49.528;11.010;2023-06-24T04:14:39;99186.34;;;15.47;69.62
79413;BME280;68863;49.528;11.010;2023-06-24T04:15:39;99190.44;;;15.51;69.17
79413;BME280;68863;49.528;11.010;2023-06-24T04:16:39;99185.63;;;15.45;69.13
79413;BME280;68863;49.528;11.010;2023-06-24T04:17:40;99186.47;;;15.46;69.35
79413;BME280;68863;49.528;11.010;2023-06-24T04:18:40;99191.75;;;15.46;69.41
79413;BME280;68863;49.528;11.010;2023-06-24T04:19:40;99181.44;;;15.54;68.91
79413;BME280;68863;49.528;11.010;2023-06-24T04:20:42;99180.69;;;15.52;69.08
79413;BME280;68863;49.528;11.010;2023-06-24T04:21:42;99185.63;;;15.45;69.78
79413;BME280;68863;49.528;11.010;2023-06-24T04:22:45;99185.88;;;15.53;69.42
79413;BME280;68863;49.528;11.010;2023-06-24T04:23:45;99197.69;;;15.60;69.16
79413;BME280;68863;49.528;11.010;2023-06-24T04:24:45;99193.22;;;15.50;69.71
79413;BME280;68863;49.528;11.010;2023-06-24T04:25:46;99200.56;;;15.57;69.57
79413;BME280;68863;49.528;11.010;2023-06-24T04:26:46;99198.53;;;15.61;69.21
79413;BME280;68863;49.528;11.010;2023-06-24T04:27:46;99202.88;;;15.62;69.18
79413;BME280;68863;49.528;11.010;2023-06-24T04:28:46;99205.50;;;15.62;69.34
79413;BME280;68863;49.528;11.010;2023-06-24T04:29:47;99205.97;;;15.56;69.41
79413;BME280;68863;49.528;11.010;2023-06-24T04:30:47;99207.16;;;15.52;69.96
79413;BME280;68863;49.528;11.010;2023-06-24T04:31:47;99204.78;;;15.49;70.17
79413;BME280;68863;49.528;11.010;2023-06-24T04:32:50;99206.44;;;15.50;70.25
79413;BME280;68863;49.528;11.010;2023-06-24T04:33:50;99202.69;;;15.52;70.50
79413;BME280;68863;49.528;11.010;2023-06-24T04:34:51;99207.91;;;15.54;70.36
79413;BME280;68863;49.528;11.010;2023-06-24T04:35:51;99203.81;;;15.61;70.31
79413;BME280;68863;49.528;11.010;2023-06-24T04:36:51;99205.19;;;15.66;70.23
79413;BME280;68863;49.528;11.010;2023-06-24T04:37:52;99204.81;;;15.71;69.96
79413;BME280;68863;49.528;11.010;2023-06-24T04:38:52;99199.16;;;15.76;69.93
79413;BME280;68863;49.528;11.010;2023-06-24T04:39:52;99194.75;;;15.76;69.77
79413;BME280;68863;49.528;11.010;2023-06-24T04:40:52;99201.25;;;15.72;69.84
79413;BME280;68863;49.528;11.010;2023-06-24T04:41:53;99199.16;;;15.76;69.69
79413;BME280;68863;49.528;11.010;2023-06-24T04:42:53;99201.50;;;15.80;69.69
79413;BME280;68863;49.528;11.010;2023-06-24T04:43:53;99204.00;;;15.82;69.65
79413;BME280;68863;49.528;11.010;2023-06-24T04:44:54;99204.25;;;15.79;69.80
79413;BME280;68863;49.528;11.010;2023-06-24T04:45:54;99206.88;;;15.79;69.71
79413;BME280;68863;49.528;11.010;2023-06-24T04:46:57;99216.03;;;15.75;69.89
79413;BME280;68863;49.528;11.010;2023-06-24T04:47:57;99207.25;;;15.74;69.76
79413;BME280;68863;49.528;11.010;2023-06-24T04:48:58;99208.22;;;15.73;70.22
79413;BME280;68863;49.528;11.010;2023-06-24T04:49:58;99213.50;;;15.73;70.05
79413;BME280;68863;49.528;11.010;2023-06-24T04:50:58;99213.16;;;15.78;70.14
79413;BME280;68863;49.528;11.010;2023-06-24T04:52:02;99215.56;;;15.81;70.45
79413;BME280;68863;49.528;11.010;2023-06-24T04:53:03;99217.84;;;15.85;69.74
79413;BME280;68863;49.528;11.010;2023-06-24T04:54:03;99215.91;;;15.87;69.60
79413;BME280;68863;49.528;11.010;2023-06-24T04:55:04;99214.75;;;15.91;69.25
79413;BME280;68863;49.528;11.010;2023-06-24T04:56:05;99223.16;;;15.97;69.51
79413;BME280;68863;49.528;11.010;2023-06-24T04:57:08;99217.03;;;15.96;69.47
79413;BME280;68863;49.528;11.010;2023-06-24T04:58:09;99218.84;;;15.96;69.63
79413;BME280;68863;49.528;11.010;2023-06-24T04:59:10;99217.50;;;15.90;69.76
79413;BME280;68863;49.528;11.010;2023-06-24T05:00:11;99217.72;;;15.87;70.06
79413;BME280;68863;49.528;11.010;2023-06-24T05:01:11;99217.97;;;15.84;70.29
79413;BME280;68863;49.528;11.010;2023-06-24T05:02:12;99217.63;;;15.88;70.34
79413;BME280;68863;49.528;11.010;2023-06-24T05:03:12;99218.84;;;15.96;70.32
79413;BME280;68863;49.528;11.010;2023-06-24T05:04:12;99214.13;;;15.99;69.84
79413;BME280;68863;49.528;11.010;2023-06-24T05:05:12;99215.31;;;15.95;70.32
79413;BME280;68863;49.528;11.010;2023-06-24T05:06:13;99215.81;;;16.00;69.82
79413;BME280;68863;49.528;11.010;2023-06-24T05:07:13;99217.50;;;16.01;69.82
79413;BME280;68863;49.528;11.010;2023-06-24T05:08:14;99220.16;;;16.01;69.86
79413;BME280;68863;49.528;11.010;2023-06-24T05:09:14;99221.00;;;16.02;70.04
79413;BME280;68863;49.528;11.010;2023-06-24T05:10:15;99228.56;;;16.06;69.95
79413;BME280;68863;49.528;11.010;2023-06-24T05:11:15;99227.97;;;16.03;69.83
79413;BME280;68863;49.528;11.010;2023-06-24T05:12:15;99222.44;;;16.06;70.08
79413;BME280;68863;49.528;11.010;2023-06-24T05:13:16;99230.88;;;16.11;70.25
79413;BME280;68863;49.528;11.010;2023-06-24T05:14:16;99232.06;;;16.07;70.22
79413;BME280;68863;49.528;11.010;2023-06-24T05:15:16;99231.97;;;16.08;70.22
79413;BME280;68863;49.528;11.010;2023-06-24T05:16:16;99240.53;;;16.12;70.69
79413;BME280;68863;49.528;11.010;2023-06-24T05:17:17;99236.06;;;16.12;70.32
79413;BME280;68863;49.528;11.010;2023-06-24T05:18:17;99231.59;;;16.13;69.99
79413;BME280;68863;49.528;11.010;2023-06-24T05:19:18;99236.66;;;16.16;69.83
79413;BME280;68863;49.528;11.010;2023-06-24T05:20:18;99238.22;;;16.18;69.60
79413;BME280;68863;49.528;11.010;2023-06-24T05:21:18;99232.91;;;16.18;69.53
79413;BME280;68863;49.528;11.010;2023-06-24T05:22:18;99228.72;;;16.16;69.15
79413;BME280;68863;49.528;11.010;2023-06-24T05:23:19;99225.94;;;16.17;69.44
79413;BME280;68863;49.528;11.010;2023-06-24T05:24:19;99225.84;;;16.19;69.77
79413;BME280;68863;49.528;11.010;2023-06-24T05:25:19;99223.53;;;16.14;70.13
79413;BME280;68863;49.528;11.010;2023-06-24T05:26:20;99224.50;;;16.13;69.85
79413;BME280;68863;49.528;11.010;2023-06-24T05:27:20;99217.88;;;16.19;69.56
79413;BME280;68863;49.528;11.010;2023-06-24T05:28:20;99219.56;;;16.20;69.61
79413;BME280;68863;49.528;11.010;2023-06-24T05:29:21;99226.31;;;16.24;69.15
79413;BME280;68863;49.528;11.010;2023-06-24T05:30:21;99224.38;;;16.26;69.82
79413;BME280;68863;49.528;11.010;2023-06-24T05:31:21;99218.34;;;16.24;69.88